Hamada, Japan

2:04 PM JST on August 28, 2014 (GMT +0900)
Iwakuni Marine Corps Air Station | Change Station
CLOSE
Current Station
Airport
Location: Iwakuni MCAS,
Elevation: 7 ft
Nearby Weather Stations

Elev 7 ft 34.14 °N, 132.24 °E | Updated 9 minutes ago

Mostly Cloudy
Mostly Cloudy
81 °F
Feels Like 83 °F
N
6
Wind Variable Wind from NE

Today
High -- | Low -- °F
--% Chance of Precip.
Yesterday
High -- | Low -- °F
Precip. -- in
5:41 AM 6:44 PM
Waxing Crescent, 6% visible
Pressure 29.96 in
Visibility 6.2 miles
Clouds Few 2000 ft
Scattered Clouds 4000 ft
Mostly Cloudy 10000 ft
Heat Index 83 °F
Dew Point 65 °F
Humidity 58%
Rainfall 0.00 in
Snow Depth Not available.
UV 5 out of 12
Pollen Not available.
Air Quality Not available.
Flu Activity Not available.
METAR RJOI 280455Z 04005KT 9999 FEW020 SCT040 BKN100 27/18 A2996 RMK SLP144 T02720183

More Conditions Fewer Conditions

Pressure 29.96 in
Visibility 6.2 miles
Clouds Few 2000 ft
Scattered Clouds 4000 ft
Mostly Cloudy 10000 ft
Heat Index 83 °F
Dew Point 65 °F
Humidity 58%
Rainfall 0.00 in
Snow Depth Not available.
UV 5 out of 12
Pollen Not available.
Air Quality Not available.
Flu Activity Not available.
METAR RJOI 280455Z 04005KT 9999 FEW020 SCT040 BKN100 27/18 A2996 RMK SLP144 T02720183

More Conditions Fewer Conditions

10-Day Weather Forecast

Almanac

Astronomy

Aug. 28, 2014 Rise Set
Actual Time 5:41 AM JST 6:44 PM JST
Civil Twilight 5:15 AM JST 7:10 PM JST
Nautical Twilight 4:44 AM JST 7:41 PM JST
Astronomical Twilight 4:12 AM JST 8:13 PM JST
Moon 7:51 AM JST 7:56 PM JST
Length of Visible Light 13h 55m
Length of Day
13h 03m
Tomorrow will be 2m 3s shorter.
Waxing Crescent, 6% of the Moon is Illuminated
Today
Waxing Crescent
Sep 2
First Quarter
Sep 8
Full
Sep 15
Last Quarter
Sep 24
New

Yesterday's Extremes

Country Highs Country Lows

Community

WunderPhotos

Upload Photos

1,747,908 photos uploaded!

Nearby

Snow Depth

Not available.

Earthquake Activity

City Distance Mag. Time & Date
No recent earthquake activity has been reported nearby.
Minimum magnitude displayed is 2.5.

Coastal Water Temperatures

Place Temperature
No Stations Reporting

Nearby Weather Stations